Terminal Aerodrome Forecast
Issued by NWS Greer, SC

Home | Current Version | Previous Version | Text Only | Print | Product List | Glossary On
Versions: 1 2 3 4 5 6 7 8 9 10 11 12 13 14 15 16 17 18 19 20 21 22 23 24 25 26 27 28 29 30 31 32 33 34 35 36 37 38 39 40 41 42 43 44 45 46 47 48 49 50
000
FTUS42 KGSP 240759 AAA
TAFCLT
TAF AMD
KCLT 240759Z 2408/2512 08013G22KT 4SM -SHRA BR OVC008
     FM241100 08011G17KT 4SM -SHRA BR OVC004
     FM241600 08009KT 3SM -SHRA BR OVC007 PROB30 2418/2422 2SM TSRA
      OVC010CB
     FM242200 07007KT 5SM BR VCSH OVC015
     FM250500 36005KT 3SM BR OVC007
     FM250900 28005KT 5SM BR OVC015=

USA.gov is the U.S. government's official web portal to all federal, state and local government web resources and services.